createdAt,value
2023-04-25T00:01:37.133Z,94952.75
2023-04-25T00:04:09.772Z,94953.00
2023-04-25T00:06:40.480Z,94951.41
2023-04-25T00:09:11.105Z,94948.75
2023-04-25T00:11:40.630Z,94954.94
2023-04-25T00:14:10.974Z,94955.38
2023-04-25T00:16:42.196Z,94955.69
2023-04-25T00:19:14.452Z,94957.03
2023-04-25T00:21:47.161Z,94962.31
2023-04-25T00:24:16.738Z,94951.41
2023-04-25T00:26:46.160Z,94950.25
2023-04-25T00:29:16.168Z,94941.13
2023-04-25T00:31:45.810Z,94944.88
2023-04-25T00:34:16.837Z,94949.41
2023-04-25T00:36:46.561Z,94945.09
2023-04-25T00:39:16.051Z,94940.28
2023-04-25T00:41:47.070Z,94948.75
2023-04-25T00:44:19.344Z,94942.28
2023-04-25T00:46:50.605Z,94941.94
2023-04-25T00:49:21.707Z,94934.41
2023-04-25T00:51:51.389Z,94943.22
2023-04-25T00:54:21.153Z,94939.16
2023-04-25T00:56:50.797Z,94934.00
2023-04-25T00:59:21.548Z,94926.00
2023-04-25T01:01:51.561Z,94932.84
2023-04-25T01:04:22.572Z,94937.09
2023-04-25T01:06:53.634Z,94939.22
2023-04-25T01:09:24.631Z,94934.56
2023-04-25T01:11:54.204Z,94938.56
2023-04-25T01:14:23.791Z,94932.97
2023-04-25T01:16:56.160Z,94930.00
2023-04-25T01:19:27.460Z,94931.59
2023-04-25T01:21:58.602Z,94929.69
2023-04-25T01:24:28.288Z,94929.94
2023-04-25T01:27:01.397Z,94928.59
2023-04-25T01:29:31.918Z,94922.97
2023-04-25T01:32:02.560Z,94922.34
2023-04-25T01:34:32.319Z,94920.66
2023-04-25T01:37:03.593Z,94914.47
2023-04-25T01:39:33.090Z,94917.59
2023-04-25T01:42:03.134Z,94916.47
2023-04-25T01:44:34.018Z,94922.81
2023-04-25T01:47:03.726Z,94928.38
2023-04-25T01:49:34.297Z,94915.31
2023-04-25T01:52:05.650Z,94911.59
2023-04-25T01:54:35.083Z,94911.34
2023-04-25T01:57:04.837Z,94910.78
2023-04-25T01:59:36.726Z,94915.38
2023-04-25T02:02:20.025Z,94917.72
2023-04-25T02:04:49.569Z,94923.28
2023-04-25T02:07:20.657Z,94909.91
2023-04-25T02:09:55.585Z,94921.69
2023-04-25T02:12:27.411Z,94911.28
2023-04-25T02:15:22.727Z,94916.91
2023-04-25T02:17:56.284Z,94918.91
2023-04-25T02:20:26.801Z,94914.44
2023-04-25T02:22:58.172Z,94914.47
2023-04-25T02:25:28.250Z,94912.47
2023-04-25T02:27:57.680Z,94912.84
2023-04-25T02:30:27.148Z,94912.38
2023-04-25T02:32:57.532Z,94922.59
2023-04-25T02:35:27.182Z,94921.34
2023-04-25T02:37:58.810Z,94916.31
2023-04-25T02:40:28.477Z,94914.97
2023-04-25T02:42:57.951Z,94913.97
2023-04-25T02:45:29.670Z,94915.38
2023-04-25T02:47:59.279Z,94919.94
2023-04-25T02:50:29.256Z,94922.16
2023-04-25T02:53:00.048Z,94927.50
2023-04-25T02:55:35.635Z,94931.00
2023-04-25T02:58:07.400Z,94918.72
2023-04-25T03:00:57.254Z,94897.00
2023-04-25T03:03:27.030Z,94863.78
2023-04-25T03:05:56.608Z,94881.06
2023-04-25T03:08:33.663Z,94888.22
2023-04-25T03:11:04.135Z,94895.13
2023-04-25T03:13:33.652Z,94886.25
2023-04-25T03:16:03.426Z,94882.75
2023-04-25T03:18:33.198Z,94876.03
2023-04-25T03:21:02.887Z,94878.66
2023-04-25T03:23:35.742Z,94884.50
2023-04-25T03:26:05.281Z,94889.63
2023-04-25T03:28:34.828Z,94878.34
2023-04-25T03:31:04.342Z,94885.00
2023-04-25T03:33:33.849Z,94884.63
2023-04-25T03:36:03.448Z,94886.00
2023-04-25T03:38:34.781Z,94871.94
2023-04-25T03:41:04.608Z,94878.03
2023-04-25T03:43:41.885Z,94878.00
2023-04-25T03:46:15.417Z,94878.53
2023-04-25T03:48:45.213Z,94875.56
2023-04-25T03:51:20.853Z,94872.44
2023-04-25T03:53:52.794Z,94873.59
2023-04-25T03:56:22.537Z,94878.41
2023-04-25T03:59:00.052Z,94889.06
2023-04-25T04:01:31.459Z,94879.97
2023-04-25T04:04:01.214Z,94891.44
2023-04-25T04:06:33.241Z,94896.78
2023-04-25T04:09:13.407Z,94886.84
2023-04-25T04:11:45.488Z,94889.53
2023-04-25T04:14:15.380Z,94885.00
2023-04-25T04:16:48.078Z,94887.59
2023-04-25T04:19:17.614Z,94892.69
2023-04-25T04:21:53.961Z,94889.47
2023-04-25T04:24:25.562Z,94887.31
2023-04-25T04:27:06.815Z,94878.53
2023-04-25T04:29:39.659Z,94891.28
2023-04-25T04:32:24.301Z,94890.22
2023-04-25T04:34:55.854Z,94891.53
2023-04-25T04:37:26.553Z,94891.84
2023-04-25T04:39:57.548Z,94895.25
2023-04-25T04:42:34.922Z,94881.41
2023-04-25T04:45:29.646Z,94885.91
2023-04-25T04:48:22.360Z,94880.53
2023-04-25T04:51:24.263Z,94879.22
2023-04-25T04:53:59.301Z,94878.97
2023-04-25T04:56:48.738Z,94878.19
2023-04-25T04:59:31.176Z,94886.25
2023-04-25T05:02:03.451Z,94887.34
2023-04-25T05:04:48.892Z,94888.66
2023-04-25T05:07:37.366Z,94888.91
2023-04-25T05:10:22.229Z,94889.91
2023-04-25T05:13:11.796Z,94892.06
2023-04-25T05:15:53.012Z,94889.72
2023-04-25T05:18:25.347Z,94882.53
2023-04-25T05:21:09.822Z,94881.00
2023-04-25T05:23:58.582Z,94890.69
2023-04-25T05:26:48.047Z,94889.69
2023-04-25T05:29:30.939Z,94899.41
2023-04-25T05:32:10.323Z,94905.84
2023-04-25T05:34:40.026Z,94914.72
2023-04-25T05:37:15.839Z,94909.38
2023-04-25T05:39:56.218Z,94917.75
2023-04-25T05:42:48.667Z,94900.13
2023-04-25T05:45:46.133Z,94912.59
2023-04-25T05:48:42.699Z,94913.38
2023-04-25T05:51:22.362Z,94911.25
2023-04-25T05:54:15.049Z,94907.78
2023-04-25T05:56:44.615Z,94902.38
2023-04-25T05:59:14.144Z,94910.84
2023-04-25T06:01:45.047Z,94900.81
2023-04-25T06:04:15.489Z,94897.28
2023-04-25T06:06:45.114Z,94903.88
2023-04-25T06:09:14.691Z,94908.41
2023-04-25T06:11:44.433Z,94903.88
2023-04-25T06:14:14.228Z,94908.16
2023-04-25T06:16:51.092Z,94903.16
2023-04-25T06:19:20.511Z,94901.06
2023-04-25T06:21:50.309Z,94901.69
2023-04-25T06:24:19.886Z,94899.06
2023-04-25T06:26:49.334Z,94899.94
2023-04-25T06:29:18.832Z,94886.38
2023-04-25T06:31:50.974Z,94886.19
2023-04-25T06:34:20.768Z,94886.56
2023-04-25T06:36:50.156Z,94883.66
2023-04-25T06:39:21.043Z,94886.94
2023-04-25T06:41:52.216Z,94880.56
2023-04-25T06:44:43.886Z,94881.66
2023-04-25T06:47:15.918Z,94888.69
2023-04-25T06:49:46.277Z,94889.28
2023-04-25T06:52:15.875Z,94893.84
2023-04-25T06:54:45.317Z,94893.84
2023-04-25T06:57:30.800Z,94892.78
2023-04-25T07:00:13.151Z,94884.75
2023-04-25T07:02:44.627Z,94885.31
2023-04-25T07:05:14.268Z,94886.63
2023-04-25T07:07:43.809Z,94881.28
2023-04-25T07:10:13.386Z,94880.25
2023-04-25T07:12:42.806Z,94879.72
2023-04-25T07:15:12.818Z,94878.94
2023-04-25T07:17:47.122Z,94886.44
2023-04-25T07:20:17.164Z,94885.91
2023-04-25T07:22:46.641Z,94869.91
2023-04-25T07:25:16.575Z,94874.97
2023-04-25T07:27:46.464Z,94878.53
2023-04-25T07:30:21.205Z,94881.25
2023-04-25T07:32:52.709Z,94878.31
2023-04-25T07:35:22.323Z,94879.94
2023-04-25T07:37:52.101Z,94874.00
2023-04-25T07:40:22.918Z,94866.19
2023-04-25T07:42:56.793Z,94868.03
2023-04-25T07:45:41.933Z,94860.50
2023-04-25T07:48:14.197Z,94864.81
2023-04-25T07:50:44.032Z,94862.09
2023-04-25T07:53:14.119Z,94857.56
2023-04-25T07:55:50.557Z,94858.88
2023-04-25T07:58:22.948Z,94855.13
2023-04-25T08:00:57.127Z,94867.22
2023-04-25T08:03:37.200Z,94868.28
2023-04-25T08:06:11.650Z,94865.88
2023-04-25T08:08:56.309Z,94869.63
2023-04-25T08:11:31.819Z,94875.50
2023-04-25T08:14:01.357Z,94869.88
2023-04-25T08:16:31.326Z,94864.44
2023-04-25T08:19:02.954Z,94867.38
2023-04-25T08:24:07.781Z,94864.50
2023-04-25T08:26:41.666Z,94867.31
2023-04-25T08:29:13.329Z,94870.41
2023-04-25T08:31:44.613Z,94863.63
2023-04-25T08:34:16.157Z,94864.63
2023-04-25T08:36:48.864Z,94860.13
2023-04-25T08:39:40.695Z,94869.09
2023-04-25T08:42:25.578Z,94864.44
2023-04-25T08:44:56.503Z,94866.41
2023-04-25T08:47:32.315Z,94880.69
2023-04-25T08:50:07.473Z,94874.50
2023-04-25T08:52:46.123Z,94875.97
2023-04-25T08:55:16.690Z,94871.25
2023-04-25T08:57:46.854Z,94874.31
2023-04-25T09:00:17.217Z,94877.97
2023-04-25T09:02:49.758Z,94877.22
2023-04-25T09:05:21.844Z,94882.59
2023-04-25T09:07:55.308Z,94873.22
2023-04-25T09:10:24.905Z,94873.94
2023-04-25T09:13:09.723Z,94877.50
2023-04-25T09:16:00.713Z,94872.53
2023-04-25T09:18:56.231Z,94878.81
2023-04-25T09:21:27.610Z,94878.88
2023-04-25T09:23:57.256Z,94880.94
2023-04-25T09:26:28.710Z,94885.88
2023-04-25T09:29:08.775Z,94889.41
2023-04-25T09:31:41.841Z,94894.81
2023-04-25T09:34:16.683Z,94889.75
2023-04-25T09:36:51.861Z,94888.19
2023-04-25T09:39:52.578Z,94885.47
2023-04-25T09:42:26.240Z,94889.50
2023-04-25T09:44:58.417Z,94888.91
2023-04-25T09:47:29.580Z,94885.41
2023-04-25T09:49:59.478Z,94886.50
2023-04-25T09:52:31.320Z,94886.59
2023-04-25T09:55:12.509Z,94888.88
2023-04-25T09:57:42.800Z,94893.06
2023-04-25T10:00:14.276Z,94892.03
2023-04-25T10:02:49.718Z,94898.72
2023-04-25T10:05:50.903Z,94910.63
2023-04-25T10:08:22.306Z,94914.91
2023-04-25T10:10:52.809Z,94917.13
2023-04-25T10:13:22.181Z,94915.38
2023-04-25T10:15:52.336Z,94919.91
2023-04-25T10:18:21.961Z,94922.00
2023-04-25T10:20:53.340Z,94919.97
2023-04-25T10:23:26.487Z,94926.81
2023-04-25T10:25:56.624Z,94950.91
2023-04-25T10:28:26.247Z,94954.41
2023-04-25T10:31:03.787Z,94957.50
2023-04-25T10:33:36.860Z,94962.69
2023-04-25T10:36:15.971Z,94960.84
2023-04-25T10:38:48.071Z,94970.75
2023-04-25T10:41:19.956Z,94975.56
2023-04-25T10:43:51.574Z,94972.13
2023-04-25T10:46:25.656Z,94976.66
2023-04-25T10:48:58.525Z,94976.41
2023-04-25T10:51:40.076Z,94972.38
2023-04-25T10:54:26.586Z,94972.91
2023-04-25T10:56:56.072Z,94970.75
2023-04-25T10:59:28.620Z,94969.69
2023-04-25T11:01:58.741Z,94972.88
2023-04-25T11:04:34.754Z,94973.41
2023-04-25T11:07:16.001Z,94967.72
2023-04-25T11:09:47.944Z,94979.22
2023-04-25T11:12:18.516Z,94981.81
2023-04-25T11:14:48.072Z,94984.69
2023-04-25T11:17:17.599Z,94985.38
2023-04-25T11:19:51.089Z,94976.06
2023-04-25T11:22:21.160Z,94984.63
2023-04-25T11:24:52.494Z,94990.31
2023-04-25T11:27:23.130Z,95015.91
2023-04-25T11:29:52.555Z,95001.50
2023-04-25T11:32:24.228Z,95027.28
2023-04-25T11:34:55.398Z,95021.47
2023-04-25T11:37:24.932Z,95030.84
2023-04-25T11:39:55.782Z,95041.78
2023-04-25T11:42:25.302Z,95039.34
2023-04-25T11:44:54.896Z,95043.63
2023-04-25T11:47:32.159Z,95039.84
2023-04-25T11:50:02.038Z,95045.41
2023-04-25T11:52:40.663Z,95043.75
2023-04-25T11:55:15.842Z,95044.25
2023-04-25T11:57:50.260Z,95046.06
2023-04-25T12:00:23.563Z,95040.72
2023-04-25T12:02:55.217Z,95046.38
2023-04-25T12:05:33.247Z,95043.13
2023-04-25T12:08:14.444Z,95048.91
2023-04-25T12:10:49.076Z,95053.47
2023-04-25T12:13:29.150Z,95049.13
2023-04-25T12:15:59.145Z,95053.03
2023-04-25T12:18:29.430Z,95045.72
2023-04-25T12:21:01.010Z,95054.81
2023-04-25T12:23:31.713Z,95049.16
2023-04-25T12:26:03.808Z,95052.19
2023-04-25T12:28:35.373Z,95047.91
2023-04-25T12:31:07.490Z,95047.09
2023-04-25T12:33:39.132Z,95050.41
2023-04-25T12:36:12.020Z,95059.34
2023-04-25T12:38:43.749Z,95057.59
2023-04-25T12:41:14.604Z,95062.88
2023-04-25T12:43:44.065Z,95060.31
2023-04-25T12:46:13.600Z,95070.78
2023-04-25T12:48:44.138Z,95069.28
2023-04-25T12:51:13.586Z,95072.84
2023-04-25T12:53:43.959Z,95059.22
2023-04-25T12:56:14.926Z,95068.13
2023-04-25T12:58:45.172Z,95064.13
2023-04-25T13:01:14.971Z,95067.06
2023-04-25T13:03:44.732Z,95086.00
2023-04-25T13:06:14.746Z,95084.59
2023-04-25T13:08:44.376Z,95087.81
2023-04-25T13:11:15.810Z,95092.16
2023-04-25T13:13:46.344Z,95094.81
2023-04-25T13:16:16.119Z,95101.63
2023-04-25T13:18:45.658Z,95104.09
2023-04-25T13:21:15.234Z,95108.16
2023-04-25T13:23:45.644Z,95103.88
2023-04-25T13:26:16.695Z,95103.88
2023-04-25T13:28:46.148Z,95107.44
2023-04-25T13:31:15.590Z,95107.00
2023-04-25T13:33:46.109Z,95120.03
2023-04-25T13:36:15.654Z,95118.56
2023-04-25T13:38:48.178Z,95122.94
2023-04-25T13:41:19.854Z,95120.81
2023-04-25T13:43:49.994Z,95127.91
2023-04-25T13:48:53.951Z,95129.94
2023-04-25T13:51:25.395Z,95130.31
2023-04-25T13:53:54.884Z,95131.34
2023-04-25T13:56:25.982Z,95130.53
2023-04-25T13:58:56.033Z,95130.75
2023-04-25T14:01:25.488Z,95136.03
2023-04-25T14:03:55.106Z,95134.75
2023-04-25T14:06:25.042Z,95137.41
2023-04-25T14:08:54.720Z,95141.56
2023-04-25T14:11:26.401Z,95141.78
2023-04-25T14:13:56.067Z,95138.34
2023-04-25T14:16:25.717Z,95135.34
2023-04-25T14:18:55.554Z,95138.34
2023-04-25T14:21:25.237Z,95131.66
2023-04-25T14:23:55.006Z,95139.25
2023-04-25T14:26:26.139Z,95136.34
2023-04-25T14:28:55.646Z,95139.06
2023-04-25T14:31:25.221Z,95148.66
2023-04-25T14:33:57.653Z,95146.00
2023-04-25T14:36:31.817Z,95145.06
2023-04-25T14:39:02.088Z,95149.59
2023-04-25T14:41:33.017Z,95148.00
2023-04-25T14:44:02.480Z,95152.31
2023-04-25T14:46:31.984Z,95146.94
2023-04-25T14:49:01.703Z,95141.34
2023-04-25T14:51:31.972Z,95145.69
2023-04-25T14:54:01.414Z,95156.72
2023-04-25T14:56:32.455Z,95147.91
2023-04-25T14:59:01.878Z,95153.59
2023-04-25T15:01:31.818Z,95161.94
2023-04-25T15:04:01.652Z,95159.28
2023-04-25T15:06:31.373Z,95167.34
2023-04-25T15:09:00.836Z,95159.00
2023-04-25T15:11:31.918Z,95163.25
2023-04-25T15:14:01.576Z,95169.31
2023-04-25T15:16:31.882Z,95178.72
2023-04-25T15:19:04.706Z,95178.47
2023-04-25T15:21:34.518Z,95185.16
2023-04-25T15:24:03.945Z,95180.56
2023-04-25T15:26:34.949Z,95186.44
2023-04-25T15:29:06.809Z,95186.94
2023-04-25T15:31:36.748Z,95179.03
2023-04-25T15:34:06.223Z,95189.53
2023-04-25T15:36:35.933Z,95194.25
2023-04-25T15:39:05.800Z,95194.78
2023-04-25T15:41:37.826Z,95205.25
2023-04-25T15:44:07.945Z,95202.28
2023-04-25T15:46:37.624Z,95201.53
2023-04-25T15:49:07.263Z,95204.19
2023-04-25T15:51:37.222Z,95207.38
2023-04-25T15:54:07.197Z,95203.34
2023-04-25T15:56:38.097Z,95204.03
2023-04-25T15:59:07.625Z,95205.72
2023-04-25T16:01:38.128Z,95207.63
2023-04-25T16:04:08.425Z,95206.25
2023-04-25T16:06:38.798Z,95204.66
2023-04-25T16:09:08.661Z,95203.94
2023-04-25T16:11:39.641Z,95212.97
2023-04-25T16:14:09.090Z,95208.38
2023-04-25T16:16:38.764Z,95204.69
2023-04-25T16:19:08.351Z,95207.13
2023-04-25T16:21:37.910Z,95210.03
2023-04-25T16:24:08.334Z,95210.00
2023-04-25T16:26:40.637Z,95211.09
2023-04-25T16:29:10.317Z,95205.19
2023-04-25T16:31:40.134Z,95211.97
2023-04-25T16:34:09.868Z,95213.53
2023-04-25T16:36:39.348Z,95212.97
2023-04-25T16:39:09.617Z,95209.28
2023-04-25T16:41:41.427Z,95222.13
2023-04-25T16:44:11.156Z,95212.22
2023-04-25T16:46:40.849Z,95222.63
2023-04-25T16:49:10.327Z,95225.53
2023-04-25T16:51:39.886Z,95230.38
2023-04-25T16:54:09.301Z,95228.22
2023-04-25T16:56:40.182Z,95236.53
2023-04-25T16:59:09.752Z,95229.88
2023-04-25T17:01:40.185Z,95244.56
2023-04-25T17:04:11.345Z,95238.16
2023-04-25T17:06:40.930Z,95236.03
2023-04-25T17:09:10.469Z,95242.78
2023-04-25T17:11:45.660Z,95248.38
2023-04-25T17:14:15.305Z,95246.59
2023-04-25T17:16:44.779Z,95242.03
2023-04-25T17:19:14.264Z,95246.63
2023-04-25T17:21:43.814Z,95251.44
2023-04-25T17:24:15.119Z,95254.94
2023-04-25T17:26:48.623Z,95254.06
2023-04-25T17:29:19.103Z,95258.88
2023-04-25T17:31:48.583Z,95260.44
2023-04-25T17:34:18.190Z,95264.13
2023-04-25T17:36:48.133Z,95265.44
2023-04-25T17:39:17.913Z,95265.13
2023-04-25T17:41:48.743Z,95273.84
2023-04-25T17:44:18.295Z,95290.34
2023-04-25T17:46:48.146Z,95288.59
2023-04-25T17:49:17.644Z,95299.38
2023-04-25T17:51:47.093Z,95315.72
2023-04-25T17:54:16.577Z,95326.97
2023-04-25T17:56:46.287Z,95325.22
2023-04-25T17:59:17.359Z,95329.44
2023-04-25T18:01:48.186Z,95324.28
2023-04-25T18:04:18.312Z,95324.63
2023-04-25T18:06:47.820Z,95325.84
2023-04-25T18:09:18.116Z,95328.41
2023-04-25T18:11:48.872Z,95323.81
2023-04-25T18:14:20.464Z,95326.38
2023-04-25T18:16:53.645Z,95335.78
2023-04-25T18:19:23.996Z,95337.97
2023-04-25T18:21:56.060Z,95343.38
2023-04-25T18:24:27.122Z,95342.25
2023-04-25T18:27:00.692Z,95351.88
2023-04-25T18:29:33.933Z,95352.91
2023-04-25T18:32:04.878Z,95348.16
2023-04-25T18:34:35.187Z,95354.06
2023-04-25T18:37:04.787Z,95363.44
2023-04-25T18:39:34.251Z,95363.09
2023-04-25T18:42:07.003Z,95356.38
2023-04-25T18:44:40.040Z,95357.59
2023-04-25T18:47:11.173Z,95358.63
2023-04-25T18:49:41.362Z,95365.38
2023-04-25T18:52:12.686Z,95373.72
2023-04-25T18:54:42.528Z,95375.75
2023-04-25T18:57:14.500Z,95380.16
2023-04-25T18:59:46.409Z,95391.06
2023-04-25T19:02:16.553Z,95390.84
2023-04-25T19:04:46.866Z,95389.63
2023-04-25T19:07:17.138Z,95391.75
2023-04-25T19:09:47.043Z,95394.00
2023-04-25T19:12:16.664Z,95397.38
2023-04-25T19:14:47.789Z,95409.09
2023-04-25T19:17:17.283Z,95410.00
2023-04-25T19:19:46.757Z,95405.38
2023-04-25T19:22:16.370Z,95405.91
2023-04-25T19:24:48.730Z,95407.19
2023-04-25T19:27:22.482Z,95408.47
2023-04-25T19:29:58.092Z,95411.69
2023-04-25T19:32:28.650Z,95414.03
2023-04-25T19:34:58.703Z,95415.16
2023-04-25T19:37:28.338Z,95407.41
2023-04-25T19:39:58.298Z,95402.66
2023-04-25T19:42:27.832Z,95408.22
2023-04-25T19:44:58.620Z,95404.75
2023-04-25T19:47:28.659Z,95407.41
2023-04-25T19:49:58.224Z,95403.13
2023-04-25T19:52:28.364Z,95404.50
2023-04-25T19:55:02.355Z,95400.94
2023-04-25T19:57:33.550Z,95404.97
2023-04-25T20:00:11.922Z,95401.41
2023-04-25T20:02:46.332Z,95401.06
2023-04-25T20:05:18.522Z,95403.84
2023-04-25T20:07:48.156Z,95399.00
2023-04-25T20:10:17.716Z,95402.16
2023-04-25T20:12:47.273Z,95416.25
2023-04-25T20:15:19.864Z,95426.38
2023-04-25T20:17:49.361Z,95430.31
2023-04-25T20:20:19.199Z,95420.56
2023-04-25T20:22:50.659Z,95422.50
2023-04-25T20:25:20.194Z,95423.66
2023-04-25T20:27:49.943Z,95426.22
2023-04-25T20:30:21.471Z,95423.31
2023-04-25T20:32:51.332Z,95427.63
2023-04-25T20:35:22.645Z,95430.84
2023-04-25T20:37:52.112Z,95421.56
2023-04-25T20:40:21.806Z,95417.88
2023-04-25T20:42:52.332Z,95423.31
2023-04-25T20:45:24.336Z,95429.81
2023-04-25T20:47:54.248Z,95426.91
2023-04-25T20:50:23.769Z,95432.13
2023-04-25T20:52:53.424Z,95428.44
2023-04-25T20:55:23.077Z,95428.19
2023-04-25T20:57:53.278Z,95427.72
2023-04-25T21:00:29.133Z,95433.75
2023-04-25T21:02:59.116Z,95432.13
2023-04-25T21:05:29.663Z,95441.41
2023-04-25T21:07:59.631Z,95444.88
2023-04-25T21:10:30.047Z,95447.78
2023-04-25T21:12:59.565Z,95450.56
2023-04-25T21:15:30.824Z,95446.03
2023-04-25T21:18:00.404Z,95449.16
2023-04-25T21:20:30.042Z,95448.25
2023-04-25T21:23:00.461Z,95447.19
2023-04-25T21:25:31.642Z,95442.09
2023-04-25T21:28:02.266Z,95443.59
2023-04-25T21:30:33.317Z,95443.03
2023-04-25T21:33:04.158Z,95444.88
2023-04-25T21:35:33.899Z,95439.56
2023-04-25T21:38:03.736Z,95443.84
2023-04-25T21:40:33.184Z,95440.38
2023-04-25T21:43:03.283Z,95437.69
2023-04-25T21:45:40.322Z,95447.09
2023-04-25T21:48:21.647Z,95435.16
2023-04-25T21:50:51.104Z,95439.91
2023-04-25T21:53:20.550Z,95441.53
2023-04-25T21:55:50.066Z,95450.31
2023-04-25T21:58:19.814Z,95455.19
2023-04-25T22:00:50.663Z,95452.19
2023-04-25T22:03:20.721Z,95455.56
2023-04-25T22:05:50.372Z,95457.16
2023-04-25T22:08:19.852Z,95456.94
2023-04-25T22:10:49.416Z,95458.09
2023-04-25T22:13:18.876Z,95460.75
2023-04-25T22:15:48.677Z,95459.94
2023-04-25T22:18:20.063Z,95456.25
2023-04-25T22:20:49.542Z,95461.56
2023-04-25T22:23:18.955Z,95467.13
2023-04-25T22:25:48.386Z,95473.84
2023-04-25T22:28:18.123Z,95467.38
2023-04-25T22:30:47.659Z,95466.56
2023-04-25T22:33:17.063Z,95470.84
2023-04-25T22:35:47.962Z,95472.56
2023-04-25T22:38:17.621Z,95476.06
2023-04-25T22:40:47.955Z,95474.31
2023-04-25T22:43:17.849Z,95478.72
2023-04-25T22:45:47.410Z,95481.06
2023-04-25T22:48:16.971Z,95483.03
2023-04-25T22:50:47.762Z,95483.47
2023-04-25T22:53:17.248Z,95481.78
2023-04-25T22:55:46.951Z,95481.78
2023-04-25T22:58:16.387Z,95482.59
2023-04-25T23:00:45.930Z,95485.25
2023-04-25T23:03:15.444Z,95486.31
2023-04-25T23:05:46.168Z,95492.78
2023-04-25T23:08:17.163Z,95490.81
2023-04-25T23:10:47.213Z,95488.50
2023-04-25T23:13:16.841Z,95486.06
2023-04-25T23:15:46.239Z,95488.16
2023-04-25T23:18:16.074Z,95491.41
2023-04-25T23:20:45.949Z,95483.41
2023-04-25T23:23:17.013Z,95486.53
2023-04-25T23:25:46.437Z,95487.00
2023-04-25T23:28:16.044Z,95485.84
2023-04-25T23:30:45.629Z,95489.09
2023-04-25T23:33:15.161Z,95496.03
2023-04-25T23:35:44.642Z,95486.41
2023-04-25T23:38:16.272Z,95494.06
2023-04-25T23:40:47.077Z,95493.03
2023-04-25T23:43:16.792Z,95488.72
2023-04-25T23:45:46.726Z,95498.94
2023-04-25T23:48:16.969Z,95490.34
2023-04-25T23:50:46.791Z,95498.94
2023-04-25T23:53:16.495Z,95496.25
2023-04-25T23:55:47.302Z,95499.75
2023-04-25T23:58:16.831Z,95497.66
